createdAt,value
2019-04-07T00:00:49.793Z,60.45
2019-04-07T00:05:50.781Z,59.98
2019-04-07T00:10:51.786Z,60.40
2019-04-07T00:15:52.772Z,61.39
2019-04-07T00:20:54.061Z,61.37
2019-04-07T00:25:55.051Z,60.80
2019-04-07T00:30:56.226Z,61.85
2019-04-07T00:35:57.084Z,61.65
2019-04-07T00:40:57.978Z,61.57
2019-04-07T00:45:58.839Z,61.18
2019-04-07T00:51:00.263Z,63.16
2019-04-07T00:56:01.509Z,64.80
2019-04-07T01:01:03.091Z,62.99
2019-04-07T01:06:03.952Z,65.02
2019-04-07T01:11:05.562Z,64.52
2019-04-07T01:16:07.207Z,65.02
2019-04-07T01:21:08.293Z,65.78
2019-04-07T01:26:09.713Z,67.92
2019-04-07T01:31:10.905Z,65.37
2019-04-07T01:36:11.727Z,64.41
2019-04-07T01:41:17.540Z,63.98
2019-04-07T01:46:20.663Z,63.93
2019-04-07T01:51:23.661Z,64.44
2019-04-07T01:56:45.015Z,63.77
2019-04-07T02:02:02.544Z,65.05
2019-04-07T02:07:14.518Z,66.50
2019-04-07T02:12:35.052Z,64.90
2019-04-07T02:17:54.596Z,64.37
2019-04-07T02:23:09.563Z,66.69
2019-04-07T02:28:16.381Z,65.27
2019-04-07T02:33:28.833Z,65.73
2019-04-07T02:38:34.753Z,66.10
2019-04-07T02:43:40.540Z,65.12
2019-04-07T02:48:49.071Z,65.73
2019-04-07T02:54:10.057Z,67.80
2019-04-07T02:59:16.167Z,66.53
2019-04-07T03:04:20.421Z,68.67
2019-04-07T03:09:33.394Z,66.27
2019-04-07T03:14:54.299Z,66.72
2019-04-07T03:19:57.487Z,67.68
2019-04-07T03:25:00.344Z,69.33
2019-04-07T03:30:09.965Z,68.27
2019-04-07T03:35:17.257Z,69.01
2019-04-07T03:40:24.479Z,68.37
2019-04-07T03:45:30.543Z,67.47
2019-04-07T03:50:39.644Z,68.48
2019-04-07T03:55:45.880Z,68.07
2019-04-07T04:01:11.477Z,69.30
2019-04-07T04:06:26.843Z,68.22
2019-04-07T04:11:34.390Z,68.84
2019-04-07T04:16:37.205Z,71.71
2019-04-07T04:21:38.238Z,68.17
2019-04-07T04:26:39.388Z,69.35
2019-04-07T04:31:40.591Z,72.86
2019-04-07T04:36:41.636Z,72.41
2019-04-07T04:41:42.750Z,68.83
2019-04-07T04:46:43.887Z,69.50
2019-04-07T04:51:44.783Z,69.93
2019-04-07T04:56:45.656Z,71.60
2019-04-07T05:01:46.851Z,70.16
2019-04-07T05:06:47.871Z,69.38
2019-04-07T05:11:49.661Z,69.48
2019-04-07T05:16:51.497Z,72.82
2019-04-07T05:21:52.824Z,70.15
2019-04-07T05:26:54.243Z,73.54
2019-04-07T05:31:55.709Z,71.35
2019-04-07T05:36:56.798Z,72.60
2019-04-07T05:41:59.181Z,72.69
2019-04-07T05:47:00.682Z,68.88
2019-04-07T05:52:05.245Z,75.78
2019-04-07T05:57:05.370Z,75.96
2019-04-07T06:02:06.880Z,77.66
2019-04-07T06:07:08.081Z,75.42
2019-04-07T06:12:09.778Z,75.84
2019-04-07T06:17:12.012Z,76.29
2019-04-07T06:22:13.068Z,74.82
2019-04-07T06:27:16.121Z,74.60
2019-04-07T06:32:16.742Z,73.81
2019-04-07T06:37:17.850Z,73.55
2019-04-07T06:42:18.895Z,72.28
2019-04-07T06:47:24.956Z,74.31
2019-04-07T06:52:34.582Z,73.91
2019-04-07T06:57:49.181Z,73.29
2019-04-07T07:03:08.501Z,72.29
2019-04-07T07:08:15.040Z,71.55
2019-04-07T07:13:32.267Z,70.81
2019-04-07T07:18:35.769Z,70.28
2019-04-07T07:23:38.731Z,69.93
2019-04-07T07:28:42.879Z,69.04
2019-04-07T07:33:43.649Z,68.13
2019-04-07T07:38:55.437Z,68.00
2019-04-07T07:43:48.241Z,68.37
2019-04-07T07:48:50.027Z,66.31
2019-04-07T07:53:51.730Z,66.40
2019-04-07T07:58:53.011Z,65.80
2019-04-07T08:03:55.759Z,64.86
2019-04-07T08:09:07.613Z,64.41
2019-04-07T08:13:59.771Z,63.42
2019-04-07T08:19:01.491Z,62.95
2019-04-07T08:24:02.630Z,62.25
2019-04-07T08:29:06.798Z,62.07
2019-04-07T08:34:06.276Z,62.52
2019-04-07T08:39:19.475Z,61.41
2019-04-07T08:44:12.575Z,60.64
2019-04-07T08:49:14.160Z,61.67
2019-04-07T08:54:18.262Z,62.59
2019-04-07T08:59:19.507Z,61.22
2019-04-07T09:04:20.785Z,60.66
2019-04-07T09:09:32.079Z,60.99
2019-04-07T09:14:28.412Z,59.64
2019-04-07T09:19:40.252Z,59.49
2019-04-07T09:24:58.877Z,60.05
2019-04-07T09:30:10.102Z,59.97
2019-04-07T09:35:29.865Z,60.14
2019-04-07T09:40:32.668Z,59.23
2019-04-07T09:45:44.771Z,59.98
2019-04-07T09:50:50.447Z,60.33
2019-04-07T09:55:55.580Z,59.99
2019-04-07T10:00:58.456Z,59.28
2019-04-07T10:06:10.615Z,59.37
2019-04-07T10:11:49.373Z,58.29
2019-04-07T10:17:05.196Z,57.06
2019-04-07T10:22:08.708Z,55.01
2019-04-07T10:27:12.520Z,55.51
2019-04-07T10:32:15.509Z,54.64
2019-04-07T10:37:36.127Z,55.09
2019-04-07T10:42:47.890Z,52.79
2019-04-07T10:48:05.882Z,53.15
2019-04-07T10:53:09.267Z,51.87
2019-04-07T10:58:21.930Z,52.14
2019-04-07T11:03:31.138Z,54.04
2019-04-07T11:08:37.584Z,54.17
2019-04-07T11:13:57.258Z,52.85
2019-04-07T11:19:17.607Z,49.92
2019-04-07T11:24:23.059Z,50.65
2019-04-07T11:29:37.565Z,50.18
2019-04-07T11:34:42.802Z,49.26
2019-04-07T11:39:46.347Z,49.99
2019-04-07T11:44:58.608Z,51.58
2019-04-07T11:50:18.934Z,49.88
2019-04-07T11:55:40.035Z,49.21
2019-04-07T12:00:59.564Z,49.16
2019-04-07T12:06:19.187Z,46.14
2019-04-07T12:11:24.937Z,48.17
2019-04-07T12:16:30.844Z,45.55
2019-04-07T12:21:40.596Z,45.61
2019-04-07T12:26:52.711Z,43.61
2019-04-07T12:32:12.502Z,43.10
2019-04-07T12:37:18.790Z,41.78
2019-04-07T12:42:24.569Z,42.27
2019-04-07T12:47:34.343Z,41.32
2019-04-07T12:52:52.991Z,42.51
2019-04-07T12:57:56.580Z,43.71
2019-04-07T13:02:59.774Z,40.81
2019-04-07T13:08:05.955Z,40.71
2019-04-07T13:13:14.654Z,37.72
2019-04-07T13:18:35.640Z,40.51
2019-04-07T13:23:55.027Z,43.70
2019-04-07T13:29:04.257Z,44.31
2019-04-07T13:34:20.010Z,42.24
2019-04-07T13:39:29.200Z,40.72
2019-04-07T13:44:36.834Z,42.46
2019-04-07T13:49:39.530Z,39.16
2019-04-07T13:54:49.298Z,38.50
2019-04-07T13:59:52.196Z,42.56
2019-04-07T14:05:03.180Z,41.10
2019-04-07T14:10:16.672Z,40.27
2019-04-07T14:15:25.961Z,41.70
2019-04-07T14:20:45.367Z,38.12
2019-04-07T14:25:52.946Z,38.84
2019-04-07T14:30:56.328Z,39.07
2019-04-07T14:36:04.967Z,38.81
2019-04-07T14:41:10.548Z,40.77
2019-04-07T14:46:30.156Z,39.45
2019-04-07T14:51:35.712Z,40.45
2019-04-07T14:56:54.238Z,39.12
2019-04-07T15:01:59.127Z,40.49
2019-04-07T15:07:06.262Z,39.66
2019-04-07T15:12:16.943Z,40.25
2019-04-07T15:17:11.039Z,40.72
2019-04-07T15:22:12.165Z,39.28
2019-04-07T15:27:13.095Z,43.06
2019-04-07T15:32:14.067Z,38.46
2019-04-07T15:37:15.432Z,39.81
2019-04-07T15:42:31.566Z,38.56
2019-04-07T15:47:21.113Z,38.88
2019-04-07T15:52:22.954Z,41.08
2019-04-07T15:57:24.112Z,40.71
2019-04-07T16:02:25.777Z,40.90
2019-04-07T16:07:27.312Z,40.08
2019-04-07T16:12:28.724Z,41.77
2019-04-07T16:17:31.989Z,40.25
2019-04-07T16:22:32.420Z,39.85
2019-04-07T16:27:36.578Z,41.92
2019-04-07T16:32:37.739Z,42.11
2019-04-07T16:37:39.148Z,41.52
2019-04-07T16:42:40.507Z,42.54
2019-04-07T16:47:42.199Z,42.03
2019-04-07T16:52:43.202Z,43.23
2019-04-07T16:57:45.047Z,43.62
2019-04-07T17:02:47.698Z,43.18
2019-04-07T17:07:48.959Z,43.57
2019-04-07T17:12:49.995Z,45.71
2019-04-07T17:17:53.086Z,46.69
2019-04-07T17:22:54.174Z,47.01
2019-04-07T17:27:58.412Z,48.39
2019-04-07T17:32:58.658Z,49.33
2019-04-07T17:38:04.064Z,51.18
2019-04-07T17:43:06.065Z,51.29
2019-04-07T17:48:24.451Z,51.90
2019-04-07T17:53:40.146Z,51.60
2019-04-07T17:58:45.833Z,52.71
2019-04-07T18:03:58.342Z,55.17
2019-04-07T18:09:12.639Z,56.45
2019-04-07T18:14:15.853Z,54.88
2019-04-07T18:19:18.692Z,54.02
2019-04-07T18:24:39.492Z,54.73
2019-04-07T18:29:42.872Z,56.16
2019-04-07T18:34:49.573Z,55.55
2019-04-07T18:40:10.952Z,56.04
2019-04-07T18:45:29.173Z,56.02
2019-04-07T18:50:48.054Z,56.47
2019-04-07T18:56:09.207Z,56.85
2019-04-07T19:01:11.614Z,57.16
2019-04-07T19:06:26.417Z,57.50
2019-04-07T19:11:42.702Z,57.50
2019-04-07T19:17:02.944Z,57.84
2019-04-07T19:22:15.825Z,58.13
2019-04-07T19:27:19.603Z,58.66
2019-04-07T19:32:27.165Z,58.88
2019-04-07T19:37:36.716Z,58.82
2019-04-07T19:42:56.408Z,58.82
2019-04-07T19:48:15.771Z,59.18
2019-04-07T19:53:36.719Z,58.75
2019-04-07T19:58:56.013Z,59.71
2019-04-07T20:03:59.760Z,59.71
2019-04-07T20:09:07.667Z,59.96
2019-04-07T20:14:13.689Z,60.20
2019-04-07T20:19:18.759Z,60.00
2019-04-07T20:24:28.028Z,60.17
2019-04-07T20:29:38.077Z,60.75
2019-04-07T20:34:54.617Z,60.43
2019-04-07T20:40:12.610Z,60.93
2019-04-07T20:45:32.371Z,61.24
2019-04-07T20:50:35.541Z,61.24
2019-04-07T20:55:50.767Z,61.73
2019-04-07T21:01:00.117Z,61.72
2019-04-07T21:05:58.752Z,60.95
2019-04-07T21:11:17.268Z,62.00
2019-04-07T21:16:24.985Z,62.34
2019-04-07T21:21:27.508Z,61.32
2019-04-07T21:26:33.541Z,61.01
2019-04-07T21:31:36.545Z,61.94
2019-04-07T21:36:41.401Z,64.21
2019-04-07T21:42:01.777Z,63.80
2019-04-07T21:47:08.423Z,64.79
2019-04-07T21:52:11.351Z,63.70
2019-04-07T21:57:31.109Z,62.69
2019-04-07T22:02:42.217Z,62.77
2019-04-07T22:07:51.239Z,65.75
2019-04-07T22:12:52.388Z,64.46
2019-04-07T22:17:54.228Z,64.43
2019-04-07T22:22:59.778Z,64.97
2019-04-07T22:27:59.009Z,65.13
2019-04-07T22:33:00.031Z,64.57
2019-04-07T22:38:01.042Z,66.33
2019-04-07T22:43:02.102Z,65.96
2019-04-07T22:48:03.559Z,64.78
2019-04-07T22:53:04.520Z,68.86
2019-04-07T22:58:05.542Z,65.44
2019-04-07T23:03:06.564Z,68.53
2019-04-07T23:08:08.259Z,66.46
2019-04-07T23:13:09.335Z,65.48
2019-04-07T23:18:10.232Z,66.23
2019-04-07T23:23:11.128Z,66.24
2019-04-07T23:28:12.003Z,65.85
2019-04-07T23:33:12.975Z,66.29
2019-04-07T23:38:13.851Z,67.53
2019-04-07T23:43:15.281Z,67.10
2019-04-07T23:48:16.424Z,67.58
2019-04-07T23:53:54.691Z,67.69
2019-04-07T23:58:56.289Z,67.41
